sensor_id;sensor_type;location;lat;lon;timestamp;temperature;humidity
28071;DHT22;15383;48.408;9.968;2023-06-22T00:01:28;21.90;91.50
28071;DHT22;15383;48.408;9.968;2023-06-22T00:04:01;21.90;91.50
28071;DHT22;15383;48.408;9.968;2023-06-22T00:06:31;21.90;91.60
28071;DHT22;15383;48.408;9.968;2023-06-22T00:11:32;21.90;91.50
28071;DHT22;15383;48.408;9.968;2023-06-22T00:14:00;21.90;91.70
28071;DHT22;15383;48.408;9.968;2023-06-22T00:16:32;21.90;91.60
28071;DHT22;15383;48.408;9.968;2023-06-22T00:19:00;21.90;91.60
28071;DHT22;15383;48.408;9.968;2023-06-22T00:21:31;21.90;91.70
28071;DHT22;15383;48.408;9.968;2023-06-22T00:24:23;21.90;91.70
28071;DHT22;15383;48.408;9.968;2023-06-22T00:26:55;21.90;91.70
28071;DHT22;15383;48.408;9.968;2023-06-22T00:29:44;21.90;91.50
28071;DHT22;15383;48.408;9.968;2023-06-22T00:32:59;21.90;91.60
28071;DHT22;15383;48.408;9.968;2023-06-22T00:35:55;21.90;91.70
28071;DHT22;15383;48.408;9.968;2023-06-22T00:38:30;21.90;91.40
28071;DHT22;15383;48.408;9.968;2023-06-22T00:40:59;21.90;91.60
28071;DHT22;15383;48.408;9.968;2023-06-22T00:43:45;21.90;91.50
28071;DHT22;15383;48.408;9.968;2023-06-22T00:51:42;21.90;91.50
28071;DHT22;15383;48.408;9.968;2023-06-22T00:57:47;21.80;91.80
28071;DHT22;15383;48.408;9.968;2023-06-22T01:01:09;21.80;91.60
28071;DHT22;15383;48.408;9.968;2023-06-22T01:03:37;21.90;91.50
28071;DHT22;15383;48.408;9.968;2023-06-22T01:06:14;21.90;91.50
28071;DHT22;15383;48.408;9.968;2023-06-22T01:08:46;21.80;91.40
28071;DHT22;15383;48.408;9.968;2023-06-22T01:14:21;21.80;91.50
28071;DHT22;15383;48.408;9.968;2023-06-22T01:16:52;21.80;91.50
28071;DHT22;15383;48.408;9.968;2023-06-22T01:22:06;21.80;91.40
28071;DHT22;15383;48.408;9.968;2023-06-22T01:56:36;21.80;91.50
28071;DHT22;15383;48.408;9.968;2023-06-22T01:59:51;21.80;91.30
28071;DHT22;15383;48.408;9.968;2023-06-22T02:02:04;21.80;91.40
28071;DHT22;15383;48.408;9.968;2023-06-22T02:04:42;21.80;91.20
28071;DHT22;15383;48.408;9.968;2023-06-22T02:07:14;21.80;91.50
28071;DHT22;15383;48.408;9.968;2023-06-22T02:09:57;21.70;91.40
28071;DHT22;15383;48.408;9.968;2023-06-22T02:12:40;21.80;91.30
28071;DHT22;15383;48.408;9.968;2023-06-22T02:15:09;21.70;91.40
28071;DHT22;15383;48.408;9.968;2023-06-22T02:17:39;21.80;91.30
28071;DHT22;15383;48.408;9.968;2023-06-22T02:20:25;21.70;91.40
28071;DHT22;15383;48.408;9.968;2023-06-22T02:22:55;21.70;91.10
28071;DHT22;15383;48.408;9.968;2023-06-22T02:25:28;21.70;91.30
28071;DHT22;15383;48.408;9.968;2023-06-22T02:27:54;21.70;91.30
28071;DHT22;15383;48.408;9.968;2023-06-22T02:30:29;21.70;91.10
28071;DHT22;15383;48.408;9.968;2023-06-22T02:33:02;21.70;91.10
28071;DHT22;15383;48.408;9.968;2023-06-22T02:35:29;21.70;91.30
28071;DHT22;15383;48.408;9.968;2023-06-22T02:38:03;21.70;91.10
28071;DHT22;15383;48.408;9.968;2023-06-22T02:40:41;21.70;91.10
28071;DHT22;15383;48.408;9.968;2023-06-22T02:43:13;21.60;91.50
28071;DHT22;15383;48.408;9.968;2023-06-22T02:46:17;21.70;91.00
28071;DHT22;15383;48.408;9.968;2023-06-22T02:48:46;21.70;91.10
28071;DHT22;15383;48.408;9.968;2023-06-22T02:51:12;21.70;91.00
28071;DHT22;15383;48.408;9.968;2023-06-22T02:54:04;21.70;91.10
28071;DHT22;15383;48.408;9.968;2023-06-22T02:56:36;21.70;91.30
28071;DHT22;15383;48.408;9.968;2023-06-22T03:03:03;21.70;91.00
28071;DHT22;15383;48.408;9.968;2023-06-22T03:06:17;21.70;90.90
28071;DHT22;15383;48.408;9.968;2023-06-22T03:09:04;21.70;91.00
28071;DHT22;15383;48.408;9.968;2023-06-22T03:11:40;21.60;91.70
28071;DHT22;15383;48.408;9.968;2023-06-22T03:14:15;21.60;91.00
28071;DHT22;15383;48.408;9.968;2023-06-22T03:16:53;21.70;90.90
28071;DHT22;15383;48.408;9.968;2023-06-22T03:19:46;21.50;90.90
28071;DHT22;15383;48.408;9.968;2023-06-22T03:22:50;21.60;90.80
28071;DHT22;15383;48.408;9.968;2023-06-22T03:25:20;21.60;91.10
28071;DHT22;15383;48.408;9.968;2023-06-22T03:30:51;21.60;90.70
28071;DHT22;15383;48.408;9.968;2023-06-22T03:33:49;21.50;90.60
28071;DHT22;15383;48.408;9.968;2023-06-22T03:36:29;21.60;90.70
28071;DHT22;15383;48.408;9.968;2023-06-22T03:42:55;21.60;91.00
28071;DHT22;15383;48.408;9.968;2023-06-22T03:45:52;21.60;91.30
28071;DHT22;15383;48.408;9.968;2023-06-22T03:48:44;21.60;91.10
28071;DHT22;15383;48.408;9.968;2023-06-22T03:51:28;21.60;91.00
28071;DHT22;15383;48.408;9.968;2023-06-22T04:01:14;21.60;91.10
28071;DHT22;15383;48.408;9.968;2023-06-22T04:43:05;21.60;91.30
28071;DHT22;15383;48.408;9.968;2023-06-22T04:45:32;21.60;91.20
28071;DHT22;15383;48.408;9.968;2023-06-22T04:47:57;21.60;91.20
28071;DHT22;15383;48.408;9.968;2023-06-22T04:50:23;21.60;91.30
28071;DHT22;15383;48.408;9.968;2023-06-22T04:52:49;21.50;91.30
28071;DHT22;15383;48.408;9.968;2023-06-22T04:55:14;21.50;91.30
28071;DHT22;15383;48.408;9.968;2023-06-22T04:57:45;21.50;91.50
28071;DHT22;15383;48.408;9.968;2023-06-22T05:00:17;21.50;91.70
28071;DHT22;15383;48.408;9.968;2023-06-22T05:02:44;21.50;91.70
28071;DHT22;15383;48.408;9.968;2023-06-22T05:05:13;21.50;91.70
28071;DHT22;15383;48.408;9.968;2023-06-22T05:07:39;21.50;91.90
28071;DHT22;15383;48.408;9.968;2023-06-22T05:10:13;21.50;92.00
28071;DHT22;15383;48.408;9.968;2023-06-22T05:12:42;21.50;92.10
28071;DHT22;15383;48.408;9.968;2023-06-22T05:15:08;21.50;92.20
28071;DHT22;15383;48.408;9.968;2023-06-22T05:17:34;21.50;92.20
28071;DHT22;15383;48.408;9.968;2023-06-22T05:20:03;21.50;92.40
28071;DHT22;15383;48.408;9.968;2023-06-22T05:22:33;21.50;92.40
28071;DHT22;15383;48.408;9.968;2023-06-22T05:24:59;21.50;92.20
28071;DHT22;15383;48.408;9.968;2023-06-22T05:27:25;21.50;92.30
28071;DHT22;15383;48.408;9.968;2023-06-22T05:29:50;21.50;92.70
28071;DHT22;15383;48.408;9.968;2023-06-22T05:32:19;21.60;92.30
28071;DHT22;15383;48.408;9.968;2023-06-22T05:34:45;21.50;92.50
28071;DHT22;15383;48.408;9.968;2023-06-22T05:37:11;21.60;92.70
28071;DHT22;15383;48.408;9.968;2023-06-22T05:39:44;21.60;92.70
28071;DHT22;15383;48.408;9.968;2023-06-22T05:42:10;21.50;92.60
28071;DHT22;15383;48.408;9.968;2023-06-22T05:44:37;21.50;92.70
28071;DHT22;15383;48.408;9.968;2023-06-22T05:47:05;21.60;92.60
28071;DHT22;15383;48.408;9.968;2023-06-22T05:49:31;21.60;93.10
28071;DHT22;15383;48.408;9.968;2023-06-22T05:52:05;21.60;92.50
28071;DHT22;15383;48.408;9.968;2023-06-22T05:54:33;21.60;92.60
28071;DHT22;15383;48.408;9.968;2023-06-22T05:59:58;21.60;93.00
28071;DHT22;15383;48.408;9.968;2023-06-22T06:02:24;21.70;92.70
28071;DHT22;15383;48.408;9.968;2023-06-22T06:04:56;21.70;92.80
28071;DHT22;15383;48.408;9.968;2023-06-22T06:07:22;21.70;92.80
28071;DHT22;15383;48.408;9.968;2023-06-22T06:09:51;21.70;92.70
28071;DHT22;15383;48.408;9.968;2023-06-22T06:12:25;21.70;92.90
28071;DHT22;15383;48.408;9.968;2023-06-22T06:14:59;21.70;92.80
28071;DHT22;15383;48.408;9.968;2023-06-22T06:17:33;21.70;92.80
28071;DHT22;15383;48.408;9.968;2023-06-22T06:20:01;21.80;93.00
28071;DHT22;15383;48.408;9.968;2023-06-22T06:22:35;21.80;92.90
28071;DHT22;15383;48.408;9.968;2023-06-22T06:25:21;21.80;93.00
28071;DHT22;15383;48.408;9.968;2023-06-22T06:27:51;21.80;93.00
28071;DHT22;15383;48.408;9.968;2023-06-22T06:30:19;21.80;93.10
28071;DHT22;15383;48.408;9.968;2023-06-22T06:32:46;21.90;93.00
28071;DHT22;15383;48.408;9.968;2023-06-22T06:43:38;22.00;92.90
28071;DHT22;15383;48.408;9.968;2023-06-22T06:46:04;22.00;92.90
28071;DHT22;15383;48.408;9.968;2023-06-22T06:51:32;22.10;93.10
28071;DHT22;15383;48.408;9.968;2023-06-22T06:54:05;22.10;93.00
28071;DHT22;15383;48.408;9.968;2023-06-22T07:07:16;22.30;93.20
28071;DHT22;15383;48.408;9.968;2023-06-22T07:20:06;22.50;93.00
28071;DHT22;15383;48.408;9.968;2023-06-22T07:22:38;22.50;93.00
28071;DHT22;15383;48.408;9.968;2023-06-22T07:25:11;22.60;93.00
28071;DHT22;15383;48.408;9.968;2023-06-22T07:30:21;22.70;93.00
28071;DHT22;15383;48.408;9.968;2023-06-22T07:32:53;22.70;93.00
28071;DHT22;15383;48.408;9.968;2023-06-22T07:35:30;22.70;92.90
28071;DHT22;15383;48.408;9.968;2023-06-22T07:38:25;22.80;92.90
28071;DHT22;15383;48.408;9.968;2023-06-22T07:40:51;22.80;92.80
28071;DHT22;15383;48.408;9.968;2023-06-22T07:43:35;22.90;92.80
28071;DHT22;15383;48.408;9.968;2023-06-22T07:46:08;22.90;92.60
28071;DHT22;15383;48.408;9.968;2023-06-22T07:49:11;23.00;93.00
28071;DHT22;15383;48.408;9.968;2023-06-22T08:07:49;23.30;92.50
28071;DHT22;15383;48.408;9.968;2023-06-22T08:16:13;23.40;92.50
28071;DHT22;15383;48.408;9.968;2023-06-22T08:18:57;23.40;92.30
28071;DHT22;15383;48.408;9.968;2023-06-22T08:21:23;23.40;92.30
28071;DHT22;15383;48.408;9.968;2023-06-22T08:24:03;23.50;92.30
28071;DHT22;15383;48.408;9.968;2023-06-22T08:26:29;23.50;92.10
28071;DHT22;15383;48.408;9.968;2023-06-22T08:32:02;23.60;92.00
28071;DHT22;15383;48.408;9.968;2023-06-22T08:34:28;23.60;92.00
28071;DHT22;15383;48.408;9.968;2023-06-22T08:37:00;23.60;92.10
28071;DHT22;15383;48.408;9.968;2023-06-22T08:42:01;23.70;92.10
28071;DHT22;15383;48.408;9.968;2023-06-22T08:44:36;23.70;92.20
28071;DHT22;15383;48.408;9.968;2023-06-22T08:47:38;23.70;92.20
28071;DHT22;15383;48.408;9.968;2023-06-22T08:54:05;23.80;92.20
28071;DHT22;15383;48.408;9.968;2023-06-22T09:02:25;23.80;92.30
28071;DHT22;15383;48.408;9.968;2023-06-22T09:05:18;23.90;92.20
28071;DHT22;15383;48.408;9.968;2023-06-22T09:08:22;23.90;92.20
28071;DHT22;15383;48.408;9.968;2023-06-22T09:10:47;23.90;92.20
28071;DHT22;15383;48.408;9.968;2023-06-22T09:13:34;23.90;92.10
28071;DHT22;15383;48.408;9.968;2023-06-22T09:16:00;23.90;92.00
28071;DHT22;15383;48.408;9.968;2023-06-22T09:18:25;24.00;92.00
28071;DHT22;15383;48.408;9.968;2023-06-22T09:21:08;24.00;92.20
28071;DHT22;15383;48.408;9.968;2023-06-22T09:23:54;24.00;92.50
28071;DHT22;15383;48.408;9.968;2023-06-22T09:27:18;24.10;92.50
28071;DHT22;15383;48.408;9.968;2023-06-22T09:30:28;24.00;92.60
28071;DHT22;15383;48.408;9.968;2023-06-22T09:38:45;24.20;92.90
28071;DHT22;15383;48.408;9.968;2023-06-22T09:49:47;24.20;92.90
28071;DHT22;15383;48.408;9.968;2023-06-22T09:52:22;24.30;93.20
28071;DHT22;15383;48.408;9.968;2023-06-22T10:09:41;24.40;92.60
28071;DHT22;15383;48.408;9.968;2023-06-22T10:12:33;24.40;93.40
28071;DHT22;15383;48.408;9.968;2023-06-22T10:52:46;24.50;92.90
28071;DHT22;15383;48.408;9.968;2023-06-22T11:03:51;24.50;92.40
28071;DHT22;15383;48.408;9.968;2023-06-22T11:06:17;24.50;91.40
28071;DHT22;15383;48.408;9.968;2023-06-22T11:08:43;24.40;90.80
28071;DHT22;15383;48.408;9.968;2023-06-22T11:11:09;24.40;91.70
28071;DHT22;15383;48.408;9.968;2023-06-22T11:13:47;24.40;91.60
28071;DHT22;15383;48.408;9.968;2023-06-22T11:16:50;24.50;92.20
28071;DHT22;15383;48.408;9.968;2023-06-22T11:22:22;24.40;91.90
28071;DHT22;15383;48.408;9.968;2023-06-22T11:28:17;24.40;91.30
28071;DHT22;15383;48.408;9.968;2023-06-22T11:30:48;24.30;91.30
28071;DHT22;15383;48.408;9.968;2023-06-22T11:33:14;24.30;91.00
28071;DHT22;15383;48.408;9.968;2023-06-22T11:35:40;24.30;91.80
28071;DHT22;15383;48.408;9.968;2023-06-22T11:38:05;24.30;91.70
28071;DHT22;15383;48.408;9.968;2023-06-22T11:40:41;24.30;90.70
28071;DHT22;15383;48.408;9.968;2023-06-22T11:43:15;24.30;92.20
28071;DHT22;15383;48.408;9.968;2023-06-22T11:51:28;24.30;91.70
28071;DHT22;15383;48.408;9.968;2023-06-22T11:57:12;24.40;92.20
28071;DHT22;15383;48.408;9.968;2023-06-22T11:59:40;24.30;92.00
28071;DHT22;15383;48.408;9.968;2023-06-22T12:02:06;24.30;91.50
28071;DHT22;15383;48.408;9.968;2023-06-22T12:11:03;24.40;93.20
28071;DHT22;15383;48.408;9.968;2023-06-22T12:13:47;24.40;93.40
28071;DHT22;15383;48.408;9.968;2023-06-22T12:16:12;24.40;93.10
28071;DHT22;15383;48.408;9.968;2023-06-22T12:27:53;24.40;93.70
28071;DHT22;15383;48.408;9.968;2023-06-22T12:30:21;24.30;93.70
28071;DHT22;15383;48.408;9.968;2023-06-22T12:32:47;24.30;94.20
28071;DHT22;15383;48.408;9.968;2023-06-22T12:35:13;24.30;93.90
28071;DHT22;15383;48.408;9.968;2023-06-22T12:37:53;24.30;93.70
28071;DHT22;15383;48.408;9.968;2023-06-22T12:40:39;24.30;93.60
28071;DHT22;15383;48.408;9.968;2023-06-22T12:43:05;24.30;94.10
28071;DHT22;15383;48.408;9.968;2023-06-22T12:45:31;24.30;93.90
28071;DHT22;15383;48.408;9.968;2023-06-22T12:48:18;24.30;93.60
28071;DHT22;15383;48.408;9.968;2023-06-22T12:51:04;24.30;93.40
28071;DHT22;15383;48.408;9.968;2023-06-22T12:53:53;24.30;93.60
28071;DHT22;15383;48.408;9.968;2023-06-22T12:56:41;24.30;93.70
28071;DHT22;15383;48.408;9.968;2023-06-22T12:59:36;24.30;93.30
28071;DHT22;15383;48.408;9.968;2023-06-22T13:02:42;24.10;93.90
28071;DHT22;15383;48.408;9.968;2023-06-22T13:05:10;24.30;93.70
28071;DHT22;15383;48.408;9.968;2023-06-22T13:08:21;24.30;93.80
28071;DHT22;15383;48.408;9.968;2023-06-22T13:10:47;24.30;93.70
28071;DHT22;15383;48.408;9.968;2023-06-22T13:13:23;24.30;94.00
28071;DHT22;15383;48.408;9.968;2023-06-22T13:16:18;24.30;94.50
28071;DHT22;15383;48.408;9.968;2023-06-22T13:21:59;24.30;94.00
28071;DHT22;15383;48.408;9.968;2023-06-22T13:24:45;24.40;94.20
28071;DHT22;15383;48.408;9.968;2023-06-22T13:27:50;24.40;95.20
28071;DHT22;15383;48.408;9.968;2023-06-22T13:30:16;24.40;93.70
28071;DHT22;15383;48.408;9.968;2023-06-22T13:32:51;24.40;93.50
28071;DHT22;15383;48.408;9.968;2023-06-22T13:35:56;24.30;93.70
28071;DHT22;15383;48.408;9.968;2023-06-22T13:38:58;24.30;93.50
28071;DHT22;15383;48.408;9.968;2023-06-22T13:41:44;24.30;94.00
28071;DHT22;15383;48.408;9.968;2023-06-22T14:38:04;24.50;95.50
28071;DHT22;15383;48.408;9.968;2023-06-22T14:40:38;24.50;95.20
28071;DHT22;15383;48.408;9.968;2023-06-22T14:43:05;24.40;95.50
28071;DHT22;15383;48.408;9.968;2023-06-22T14:45:32;24.50;95.10
28071;DHT22;15383;48.408;9.968;2023-06-22T14:48:00;24.40;95.10
28071;DHT22;15383;48.408;9.968;2023-06-22T14:50:28;24.50;95.00
28071;DHT22;15383;48.408;9.968;2023-06-22T14:52:54;24.40;94.40
28071;DHT22;15383;48.408;9.968;2023-06-22T14:55:20;24.40;94.60
28071;DHT22;15383;48.408;9.968;2023-06-22T14:58:06;24.40;94.50
28071;DHT22;15383;48.408;9.968;2023-06-22T15:00:32;24.50;95.50
28071;DHT22;15383;48.408;9.968;2023-06-22T15:03:18;24.50;95.50
28071;DHT22;15383;48.408;9.968;2023-06-22T15:09:13;24.50;96.40
28071;DHT22;15383;48.408;9.968;2023-06-22T15:12:08;24.50;96.80
28071;DHT22;15383;48.408;9.968;2023-06-22T15:36:27;24.50;97.30
28071;DHT22;15383;48.408;9.968;2023-06-22T15:42:44;24.50;96.70
28071;DHT22;15383;48.408;9.968;2023-06-22T15:45:12;24.50;97.20
28071;DHT22;15383;48.408;9.968;2023-06-22T15:48:15;24.60;98.00
28071;DHT22;15383;48.408;9.968;2023-06-22T15:54:04;24.60;97.70
28071;DHT22;15383;48.408;9.968;2023-06-22T16:09:09;24.50;97.20
28071;DHT22;15383;48.408;9.968;2023-06-22T16:11:55;24.40;97.20
28071;DHT22;15383;48.408;9.968;2023-06-22T16:20:14;24.40;97.50
28071;DHT22;15383;48.408;9.968;2023-06-22T17:25:54;24.40;96.80
28071;DHT22;15383;48.408;9.968;2023-06-22T17:39:04;24.40;96.20
28071;DHT22;15383;48.408;9.968;2023-06-22T17:41:48;24.40;95.70
28071;DHT22;15383;48.408;9.968;2023-06-22T17:44:52;24.40;95.60
28071;DHT22;15383;48.408;9.968;2023-06-22T17:47:58;24.30;95.90
28071;DHT22;15383;48.408;9.968;2023-06-22T17:51:03;24.20;96.10
28071;DHT22;15383;48.408;9.968;2023-06-22T17:54:09;24.20;96.20
28071;DHT22;15383;48.408;9.968;2023-06-22T17:57:01;24.10;96.20
28071;DHT22;15383;48.408;9.968;2023-06-22T18:00:00;24.10;96.20
28071;DHT22;15383;48.408;9.968;2023-06-22T18:06:03;24.00;96.20
28071;DHT22;15383;48.408;9.968;2023-06-22T18:11:14;24.00;96.20
28071;DHT22;15383;48.408;9.968;2023-06-22T18:13:47;24.00;96.10
28071;DHT22;15383;48.408;9.968;2023-06-22T18:16:19;24.00;96.10
28071;DHT22;15383;48.408;9.968;2023-06-22T18:18:48;24.00;96.00
28071;DHT22;15383;48.408;9.968;2023-06-22T18:24:32;23.90;95.90
28071;DHT22;15383;48.408;9.968;2023-06-22T18:27:36;23.90;95.80
28071;DHT22;15383;48.408;9.968;2023-06-22T18:30:04;23.90;95.60
28071;DHT22;15383;48.408;9.968;2023-06-22T19:08:13;23.70;94.30
28071;DHT22;15383;48.408;9.968;2023-06-22T19:11:11;23.70;94.20
28071;DHT22;15383;48.408;9.968;2023-06-22T19:14:19;23.60;94.10
28071;DHT22;15383;48.408;9.968;2023-06-22T19:17:27;23.60;94.00
28071;DHT22;15383;48.408;9.968;2023-06-22T19:24:06;23.60;93.90
28071;DHT22;15383;48.408;9.968;2023-06-22T19:36:15;23.60;94.00
28071;DHT22;15383;48.408;9.968;2023-06-22T19:39:17;23.60;94.10
28071;DHT22;15383;48.408;9.968;2023-06-22T19:41:44;23.60;94.20
28071;DHT22;15383;48.408;9.968;2023-06-22T19:44:14;23.50;94.10
28071;DHT22;15383;48.408;9.968;2023-06-22T19:46:49;23.50;94.10
28071;DHT22;15383;48.408;9.968;2023-06-22T19:49:49;23.50;94.00
28071;DHT22;15383;48.408;9.968;2023-06-22T19:52:38;23.50;94.10
28071;DHT22;15383;48.408;9.968;2023-06-22T19:58:37;23.50;94.00
28071;DHT22;15383;48.408;9.968;2023-06-22T20:01:40;23.40;94.00
28071;DHT22;15383;48.408;9.968;2023-06-22T20:04:06;23.50;93.90
28071;DHT22;15383;48.408;9.968;2023-06-22T20:06:34;23.40;93.80
28071;DHT22;15383;48.408;9.968;2023-06-22T20:09:00;23.40;93.80
28071;DHT22;15383;48.408;9.968;2023-06-22T20:11:34;23.40;93.70
28071;DHT22;15383;48.408;9.968;2023-06-22T20:14:20;23.40;93.70
28071;DHT22;15383;48.408;9.968;2023-06-22T20:17:09;23.40;93.70
28071;DHT22;15383;48.408;9.968;2023-06-22T20:20:03;23.40;93.70
28071;DHT22;15383;48.408;9.968;2023-06-22T20:23:09;23.30;93.70
28071;DHT22;15383;48.408;9.968;2023-06-22T20:25:55;23.30;93.60
28071;DHT22;15383;48.408;9.968;2023-06-22T20:28:55;23.40;93.60
28071;DHT22;15383;48.408;9.968;2023-06-22T20:31:21;23.40;93.50
28071;DHT22;15383;48.408;9.968;2023-06-22T20:34:13;23.30;93.40
28071;DHT22;15383;48.408;9.968;2023-06-22T20:36:41;23.30;93.50
28071;DHT22;15383;48.408;9.968;2023-06-22T20:39:06;23.30;93.50
28071;DHT22;15383;48.408;9.968;2023-06-22T20:41:46;23.30;93.50
28071;DHT22;15383;48.408;9.968;2023-06-22T20:44:54;23.30;93.50
28071;DHT22;15383;48.408;9.968;2023-06-22T20:47:20;23.30;93.50
28071;DHT22;15383;48.408;9.968;2023-06-22T20:49:46;23.30;93.50
28071;DHT22;15383;48.408;9.968;2023-06-22T20:52:12;23.30;93.50
28071;DHT22;15383;48.408;9.968;2023-06-22T20:54:39;23.20;93.50
28071;DHT22;15383;48.408;9.968;2023-06-22T20:57:31;23.20;93.50
28071;DHT22;15383;48.408;9.968;2023-06-22T21:00:20;23.20;93.50
28071;DHT22;15383;48.408;9.968;2023-06-22T21:02:54;23.20;93.40
28071;DHT22;15383;48.408;9.968;2023-06-22T21:06:04;23.20;93.40
28071;DHT22;15383;48.408;9.968;2023-06-22T21:08:33;23.20;93.40
28071;DHT22;15383;48.408;9.968;2023-06-22T21:14:55;23.20;93.40
28071;DHT22;15383;48.408;9.968;2023-06-22T21:17:31;23.20;93.40
28071;DHT22;15383;48.408;9.968;2023-06-22T21:20:12;23.20;93.40
28071;DHT22;15383;48.408;9.968;2023-06-22T21:23:24;23.20;93.40
28071;DHT22;15383;48.408;9.968;2023-06-22T21:26:28;23.10;93.40
28071;DHT22;15383;48.408;9.968;2023-06-22T21:29:40;23.10;93.40
28071;DHT22;15383;48.408;9.968;2023-06-22T21:32:27;23.10;93.50
28071;DHT22;15383;48.408;9.968;2023-06-22T21:35:26;23.10;93.50
28071;DHT22;15383;48.408;9.968;2023-06-22T21:37:53;23.10;93.50
28071;DHT22;15383;48.408;9.968;2023-06-22T21:40:34;23.00;93.50
28071;DHT22;15383;48.408;9.968;2023-06-22T21:43:33;23.00;93.50
28071;DHT22;15383;48.408;9.968;2023-06-22T21:46:22;23.00;93.50
28071;DHT22;15383;48.408;9.968;2023-06-22T21:49:28;23.00;93.50
28071;DHT22;15383;48.408;9.968;2023-06-22T21:51:55;23.00;93.50
28071;DHT22;15383;48.408;9.968;2023-06-22T21:54:48;22.90;93.50
28071;DHT22;15383;48.408;9.968;2023-06-22T21:57:39;23.00;93.50
28071;DHT22;15383;48.408;9.968;2023-06-22T22:00:22;23.00;93.50
28071;DHT22;15383;48.408;9.968;2023-06-22T22:02:54;23.00;93.50
28071;DHT22;15383;48.408;9.968;2023-06-22T22:05:42;23.00;93.50
28071;DHT22;15383;48.408;9.968;2023-06-22T22:08:27;23.00;93.50
28071;DHT22;15383;48.408;9.968;2023-06-22T22:11:04;23.00;93.50
28071;DHT22;15383;48.408;9.968;2023-06-22T22:13:52;23.00;93.60
28071;DHT22;15383;48.408;9.968;2023-06-22T22:16:51;23.00;93.60
28071;DHT22;15383;48.408;9.968;2023-06-22T22:19:44;22.90;93.50
28071;DHT22;15383;48.408;9.968;2023-06-22T22:22:31;22.90;93.40
28071;DHT22;15383;48.408;9.968;2023-06-22T22:24:57;22.90;93.50
28071;DHT22;15383;48.408;9.968;2023-06-22T22:27:44;22.90;93.50
28071;DHT22;15383;48.408;9.968;2023-06-22T22:30:11;22.90;93.50
28071;DHT22;15383;48.408;9.968;2023-06-22T22:36:24;22.90;93.50
28071;DHT22;15383;48.408;9.968;2023-06-22T22:39:05;22.90;93.50
28071;DHT22;15383;48.408;9.968;2023-06-22T22:41:31;22.90;93.50
28071;DHT22;15383;48.408;9.968;2023-06-22T22:44:17;22.90;93.50
28071;DHT22;15383;48.408;9.968;2023-06-22T22:47:29;22.90;93.50
28071;DHT22;15383;48.408;9.968;2023-06-22T22:50:03;22.90;93.50
28071;DHT22;15383;48.408;9.968;2023-06-22T22:52:52;22.90;93.40
28071;DHT22;15383;48.408;9.968;2023-06-22T22:55:39;22.90;93.50
28071;DHT22;15383;48.408;9.968;2023-06-22T22:58:08;22.80;93.50
28071;DHT22;15383;48.408;9.968;2023-06-22T23:04:27;22.80;93.40
28071;DHT22;15383;48.408;9.968;2023-06-22T23:07:16;22.80;93.40
28071;DHT22;15383;48.408;9.968;2023-06-22T23:10:22;22.80;93.40
28071;DHT22;15383;48.408;9.968;2023-06-22T23:13:31;22.80;93.30
28071;DHT22;15383;48.408;9.968;2023-06-22T23:15:58;22.80;93.30
28071;DHT22;15383;48.408;9.968;2023-06-22T23:18:24;22.80;93.30
28071;DHT22;15383;48.408;9.968;2023-06-22T23:21:13;22.80;93.30
28071;DHT22;15383;48.408;9.968;2023-06-22T23:24:02;22.80;93.30
28071;DHT22;15383;48.408;9.968;2023-06-22T23:27:08;22.80;93.20
28071;DHT22;15383;48.408;9.968;2023-06-22T23:29:44;22.80;93.20
28071;DHT22;15383;48.408;9.968;2023-06-22T23:32:27;22.70;93.20
28071;DHT22;15383;48.408;9.968;2023-06-22T23:34:53;22.80;93.20
28071;DHT22;15383;48.408;9.968;2023-06-22T23:37:41;22.80;93.20
28071;DHT22;15383;48.408;9.968;2023-06-22T23:40:28;22.70;93.10
28071;DHT22;15383;48.408;9.968;2023-06-22T23:43:18;22.70;93.30
28071;DHT22;15383;48.408;9.968;2023-06-22T23:46:08;22.70;93.30
28071;DHT22;15383;48.408;9.968;2023-06-22T23:49:14;22.70;93.30
28071;DHT22;15383;48.408;9.968;2023-06-22T23:51:43;22.70;93.20
28071;DHT22;15383;48.408;9.968;2023-06-22T23:54:35;22.70;93.30
28071;DHT22;15383;48.408;9.968;2023-06-22T23:57:26;22.70;93.30
28071;DHT22;15383;48.408;9.968;2023-06-22T23:59:54;22.70;93.30
